createdAt,value
2023-04-17T00:00:39.436Z,10.75
2023-04-17T00:03:13.123Z,7.07
2023-04-17T00:05:40.529Z,9.57
2023-04-17T00:08:14.193Z,8.75
2023-04-17T00:10:41.495Z,13.18
2023-04-17T00:13:08.606Z,11.48
2023-04-17T00:15:42.056Z,14.75
2023-04-17T00:18:09.284Z,11.88
2023-04-17T00:20:43.214Z,13.00
2023-04-17T00:23:10.440Z,11.77
2023-04-17T00:25:37.540Z,11.18
2023-04-17T00:28:11.057Z,10.10
2023-04-17T00:30:38.210Z,8.93
2023-04-17T00:33:12.025Z,13.00
2023-04-17T00:35:39.422Z,12.07
2023-04-17T00:38:20.055Z,10.30
2023-04-17T00:40:54.116Z,9.63
2023-04-17T00:43:27.972Z,9.73
2023-04-17T00:45:55.351Z,7.95
2023-04-17T00:48:24.144Z,9.52
2023-04-17T00:50:58.069Z,16.63
2023-04-17T00:53:25.347Z,7.78
2023-04-17T00:55:52.732Z,11.95
2023-04-17T00:58:27.072Z,10.63
2023-04-17T01:00:54.423Z,9.77
2023-04-17T01:03:29.329Z,8.13
2023-04-17T01:05:56.860Z,12.23
2023-04-17T01:08:24.001Z,11.15
2023-04-17T01:10:58.084Z,9.90
2023-04-17T01:13:26.068Z,12.55
2023-04-17T01:16:00.054Z,11.00
2023-04-17T01:18:27.291Z,11.25
2023-04-17T01:21:01.383Z,15.85
2023-04-17T01:23:29.611Z,12.15
2023-04-17T01:25:56.775Z,9.98
2023-04-17T01:28:30.041Z,12.98
2023-04-17T01:30:57.259Z,11.00
2023-04-17T01:33:31.203Z,12.75
2023-04-17T01:35:58.473Z,13.05
2023-04-17T01:38:39.239Z,11.80
2023-04-17T01:41:13.221Z,11.55
2023-04-17T01:43:48.149Z,12.77
2023-04-17T01:46:22.020Z,11.60
2023-04-17T01:48:56.297Z,10.63
2023-04-17T01:51:23.548Z,13.07
2023-04-17T01:53:50.700Z,13.88
2023-04-17T01:56:24.122Z,9.73
2023-04-17T01:58:51.709Z,13.95
2023-04-17T02:03:52.701Z,15.02
2023-04-17T02:06:19.883Z,13.70
2023-04-17T02:08:53.025Z,11.32
2023-04-17T02:11:20.863Z,13.57
2023-04-17T02:13:55.148Z,9.93
2023-04-17T02:16:22.710Z,12.23
2023-04-17T02:21:23.026Z,10.60
2023-04-17T02:23:50.406Z,9.02
2023-04-17T02:26:24.125Z,8.15
2023-04-17T02:28:51.349Z,11.98
2023-04-17T02:31:18.626Z,16.05
2023-04-17T02:33:51.992Z,19.65
2023-04-17T02:36:19.337Z,16.10
2023-04-17T02:38:53.045Z,14.60
2023-04-17T02:41:27.260Z,10.95
2023-04-17T02:44:01.037Z,9.52
2023-04-17T02:46:28.339Z,12.57
2023-04-17T02:48:55.550Z,14.27
2023-04-17T02:51:29.017Z,11.60
2023-04-17T02:53:56.442Z,11.45
2023-04-17T02:56:30.068Z,13.70
2023-04-17T02:58:57.306Z,12.57
2023-04-17T03:01:24.442Z,12.10
2023-04-17T03:03:59.384Z,13.13
2023-04-17T03:06:26.735Z,13.90
2023-04-17T03:09:01.215Z,16.02
2023-04-17T03:11:28.555Z,13.57
2023-04-17T03:13:55.637Z,16.27
2023-04-17T03:16:29.216Z,11.20
2023-04-17T03:18:56.440Z,11.82
2023-04-17T03:21:30.197Z,9.35
2023-04-17T03:23:57.354Z,14.07
2023-04-17T03:26:24.489Z,13.43
2023-04-17T03:28:58.123Z,16.63
2023-04-17T03:31:25.841Z,14.25
2023-04-17T03:33:59.142Z,15.80
2023-04-17T03:36:27.158Z,18.83
2023-04-17T03:39:07.232Z,17.88
2023-04-17T03:41:34.434Z,17.75
2023-04-17T03:44:01.685Z,12.05
2023-04-17T03:46:35.134Z,15.40
2023-04-17T03:49:02.300Z,12.82
2023-04-17T03:51:36.074Z,16.20
2023-04-17T03:54:03.427Z,12.75
2023-04-17T03:56:30.571Z,14.50
2023-04-17T03:59:04.058Z,13.80
2023-04-17T04:01:32.857Z,17.77
2023-04-17T04:04:07.385Z,16.67
2023-04-17T04:06:34.876Z,16.25
2023-04-17T04:09:01.994Z,12.65
2023-04-17T04:11:36.178Z,19.00
2023-04-17T04:14:03.336Z,15.02
2023-04-17T04:16:37.122Z,15.15
2023-04-17T04:19:04.414Z,14.07
2023-04-17T04:21:31.519Z,12.88
2023-04-17T04:24:05.044Z,18.90
2023-04-17T04:26:33.493Z,18.83
2023-04-17T04:29:07.026Z,13.13
2023-04-17T04:31:35.814Z,16.38
2023-04-17T04:34:09.190Z,14.35
2023-04-17T04:36:49.960Z,11.10
2023-04-17T04:39:34.118Z,16.15
2023-04-17T04:42:09.879Z,11.10
2023-04-17T04:44:44.082Z,13.68
2023-04-17T04:47:11.283Z,9.70
2023-04-17T04:49:38.371Z,10.38
2023-04-17T04:52:12.107Z,9.98
2023-04-17T04:54:39.304Z,9.25
2023-04-17T04:57:13.227Z,11.15
2023-04-17T04:59:40.533Z,9.52
2023-04-17T05:02:07.985Z,10.60
2023-04-17T05:04:42.442Z,8.55
2023-04-17T05:07:11.470Z,9.30
2023-04-17T05:09:38.601Z,14.07
2023-04-17T05:12:12.130Z,10.80
2023-04-17T05:14:39.413Z,10.60
2023-04-17T05:17:13.396Z,11.02
2023-04-17T05:19:40.680Z,10.35
2023-04-17T05:22:07.913Z,10.95
2023-04-17T05:24:41.117Z,10.85
2023-04-17T05:27:08.263Z,11.70
2023-04-17T05:29:42.086Z,10.05
2023-04-17T05:32:09.352Z,10.85
2023-04-17T05:34:36.460Z,12.00
2023-04-17T05:37:10.063Z,16.23
2023-04-17T05:39:44.268Z,16.52
2023-04-17T05:42:18.107Z,10.45
2023-04-17T05:44:45.967Z,10.10
2023-04-17T05:47:13.435Z,13.63
2023-04-17T05:49:47.289Z,13.63
2023-04-17T05:52:14.564Z,14.82
2023-04-17T05:54:48.059Z,12.20
2023-04-17T05:57:15.551Z,11.20
2023-04-17T05:59:43.227Z,12.95
2023-04-17T06:02:17.213Z,15.25
2023-04-17T06:04:45.046Z,14.65
2023-04-17T06:07:19.467Z,13.60
2023-04-17T06:09:53.048Z,11.77
2023-04-17T06:12:27.285Z,11.68
2023-04-17T06:15:01.289Z,12.98
2023-04-17T06:17:35.254Z,13.90
2023-04-17T06:20:02.506Z,15.90
2023-04-17T06:22:29.578Z,18.88
2023-04-17T06:25:03.154Z,11.05
2023-04-17T06:27:30.467Z,13.45
2023-04-17T06:30:04.430Z,13.65
2023-04-17T06:32:31.615Z,15.07
2023-04-17T06:34:59.746Z,11.95
2023-04-17T06:37:33.131Z,10.93
2023-04-17T06:40:21.087Z,8.77
2023-04-17T06:42:55.287Z,7.83
2023-04-17T06:45:22.465Z,14.40
2023-04-17T06:47:49.660Z,12.02
2023-04-17T06:50:23.145Z,8.95
2023-04-17T06:52:50.584Z,9.30
2023-04-17T06:55:24.258Z,8.32
2023-04-17T06:57:51.509Z,7.63
2023-04-17T07:00:18.856Z,7.32
2023-04-17T07:02:53.265Z,7.18
2023-04-17T07:05:20.507Z,7.05
2023-04-17T07:07:54.207Z,9.85
2023-04-17T07:10:21.463Z,7.07
2023-04-17T07:12:48.554Z,7.47
2023-04-17T07:15:23.156Z,10.40
2023-04-17T07:17:50.448Z,7.22
2023-04-17T07:20:24.216Z,7.90
2023-04-17T07:22:51.439Z,14.27
2023-04-17T07:25:19.863Z,8.80
2023-04-17T07:27:53.225Z,15.20
2023-04-17T07:30:20.405Z,9.07
2023-04-17T07:32:54.277Z,6.95
2023-04-17T07:35:21.490Z,13.85
2023-04-17T07:37:48.567Z,8.95
2023-04-17T07:40:23.227Z,4.88
2023-04-17T07:42:50.501Z,8.35
2023-04-17T07:45:24.299Z,7.75
2023-04-17T07:47:52.834Z,6.53
2023-04-17T07:50:20.003Z,4.00
2023-04-17T07:52:54.160Z,7.40
2023-04-17T07:55:21.387Z,7.43
2023-04-17T07:57:58.248Z,6.63
2023-04-17T08:00:25.421Z,7.72
2023-04-17T08:02:52.717Z,9.52
2023-04-17T08:05:26.387Z,6.57
2023-04-17T08:07:53.686Z,5.25
2023-04-17T08:10:27.114Z,6.43
2023-04-17T08:12:54.503Z,7.55
2023-04-17T08:15:22.084Z,6.80
2023-04-17T08:20:24.398Z,5.88
2023-04-17T08:22:58.168Z,5.57
2023-04-17T08:25:25.627Z,6.20
2023-04-17T08:27:52.973Z,9.93
2023-04-17T08:30:27.223Z,4.20
2023-04-17T08:32:55.670Z,5.97
2023-04-17T08:35:29.155Z,4.28
2023-04-17T08:37:58.817Z,6.97
2023-04-17T08:40:39.259Z,4.88
2023-04-17T08:43:06.802Z,6.03
2023-04-17T08:48:07.205Z,7.05
2023-04-17T08:50:34.431Z,8.77
2023-04-17T08:53:08.102Z,8.00
2023-04-17T08:55:36.220Z,6.63
2023-04-17T08:58:11.278Z,6.70
2023-04-17T09:00:39.641Z,7.68
2023-04-17T09:03:08.230Z,7.60
2023-04-17T09:05:46.504Z,8.88
2023-04-17T09:10:56.269Z,8.52
2023-04-17T09:13:32.250Z,5.88
2023-04-17T09:16:07.455Z,9.10
2023-04-17T09:18:42.156Z,4.13
2023-04-17T09:21:09.819Z,5.10
2023-04-17T09:24:14.119Z,7.03
2023-04-17T09:26:41.361Z,6.55
2023-04-17T09:29:11.779Z,8.02
2023-04-17T09:31:47.248Z,5.45
2023-04-17T09:34:16.863Z,6.38
2023-04-17T09:36:51.184Z,4.90
2023-04-17T09:39:29.170Z,4.68
2023-04-17T09:45:25.296Z,7.50
2023-04-17T09:48:02.145Z,4.88
2023-04-17T09:50:29.599Z,8.35
2023-04-17T09:53:04.136Z,6.93
2023-04-17T09:55:31.703Z,7.25
2023-04-17T10:00:32.616Z,5.38
2023-04-17T10:03:00.278Z,5.13
2023-04-17T10:05:35.299Z,4.30
2023-04-17T10:08:03.642Z,7.55
2023-04-17T10:10:43.682Z,4.40
2023-04-17T10:13:11.696Z,5.68
2023-04-17T10:15:39.648Z,6.88
2023-04-17T10:18:32.193Z,9.32
2023-04-17T10:21:19.318Z,5.30
2023-04-17T10:23:53.240Z,5.07
2023-04-17T10:26:26.518Z,4.53
2023-04-17T10:29:01.425Z,5.25
2023-04-17T10:31:47.522Z,8.00
2023-04-17T10:34:42.573Z,7.38
2023-04-17T10:37:15.288Z,5.13
2023-04-17T10:40:17.486Z,3.95
2023-04-17T10:43:11.053Z,5.00
2023-04-17T10:46:01.282Z,4.88
2023-04-17T10:48:29.481Z,4.80
2023-04-17T10:50:56.850Z,4.93
2023-04-17T10:53:50.272Z,3.80
2023-04-17T10:56:30.203Z,5.60
2023-04-17T10:58:58.900Z,5.43
2023-04-17T11:01:28.397Z,10.20
2023-04-17T11:04:03.301Z,6.18
2023-04-17T11:06:34.378Z,4.47
2023-04-17T11:09:08.290Z,5.82
2023-04-17T11:11:44.029Z,5.13
2023-04-17T11:14:23.210Z,8.23
2023-04-17T11:16:51.019Z,6.90
2023-04-17T11:19:26.298Z,5.38
2023-04-17T11:21:54.787Z,7.30
2023-04-17T11:24:35.245Z,7.65
2023-04-17T11:27:03.544Z,3.58
2023-04-17T11:29:31.040Z,7.32
2023-04-17T11:32:07.233Z,8.30
2023-04-17T11:34:34.621Z,7.47
2023-04-17T11:37:09.259Z,6.25
2023-04-17T11:39:43.279Z,7.13
2023-04-17T11:42:17.405Z,9.38
2023-04-17T11:44:44.795Z,5.95
2023-04-17T11:47:11.933Z,4.13
2023-04-17T11:49:46.257Z,6.38
2023-04-17T11:52:14.866Z,6.70
2023-04-17T11:54:49.239Z,8.45
2023-04-17T11:57:16.478Z,6.78
2023-04-17T11:59:52.370Z,4.85
2023-04-17T12:02:32.691Z,5.32
2023-04-17T12:05:20.455Z,6.72
2023-04-17T12:07:47.812Z,5.32
2023-04-17T15:00:25.529Z,5.13
2023-04-17T15:03:07.455Z,5.60
2023-04-17T15:05:41.475Z,8.27
2023-04-17T15:08:08.709Z,5.55
2023-04-17T15:10:47.899Z,10.75
2023-04-17T15:13:24.283Z,6.15
2023-04-17T15:15:51.379Z,10.77
2023-04-17T15:18:25.382Z,8.98
2023-04-17T15:20:52.466Z,5.45
2023-04-17T15:23:19.906Z,6.95
2023-04-17T15:25:53.382Z,10.88
2023-04-17T15:28:20.765Z,9.63
2023-04-17T15:30:54.433Z,6.40
2023-04-17T15:33:21.630Z,4.90
2023-04-17T15:35:54.219Z,9.23
2023-04-17T15:38:28.385Z,9.55
2023-04-17T15:40:56.208Z,11.13
2023-04-17T15:43:30.301Z,9.25
2023-04-17T15:45:58.997Z,5.57
2023-04-17T15:48:34.433Z,7.65
2023-04-17T15:51:03.093Z,8.23
2023-04-17T15:53:30.263Z,4.93
2023-04-17T15:56:04.330Z,4.93
2023-04-17T15:58:31.486Z,9.27
2023-04-17T16:01:12.444Z,5.63
2023-04-17T16:03:47.440Z,8.13
2023-04-17T16:06:21.685Z,6.57
2023-04-17T16:08:48.970Z,6.82
2023-04-17T16:11:16.418Z,6.35
2023-04-17T16:13:50.437Z,8.65
2023-04-17T16:16:17.790Z,7.30
2023-04-17T16:18:47.535Z,5.10
2023-04-17T16:21:21.353Z,6.38
2023-04-17T16:23:49.524Z,6.47
2023-04-17T16:26:16.633Z,4.05
2023-04-17T16:28:52.385Z,5.53
2023-04-17T16:31:21.258Z,5.78
2023-04-17T16:33:55.433Z,5.85
2023-04-17T16:36:22.677Z,6.80
2023-04-17T16:38:49.851Z,5.85
2023-04-17T16:41:23.438Z,4.85
2023-04-17T16:43:50.771Z,6.55
2023-04-17T16:46:23.804Z,5.72
2023-04-17T16:49:09.442Z,7.57
2023-04-17T16:51:37.668Z,7.57
2023-04-17T16:54:18.446Z,6.60
2023-04-17T16:56:45.732Z,7.55
2023-04-17T16:59:13.118Z,7.20
2023-04-17T17:01:47.585Z,6.18
2023-04-17T17:04:21.331Z,4.00
2023-04-17T17:06:55.533Z,11.23
2023-04-17T17:09:22.957Z,4.90
2023-04-17T17:11:50.159Z,5.95
2023-04-17T17:14:23.342Z,10.15
2023-04-17T17:16:50.660Z,4.80
2023-04-17T17:19:24.381Z,6.82
2023-04-17T17:21:51.845Z,5.25
2023-04-17T17:24:18.938Z,7.03
2023-04-17T17:26:52.346Z,5.28
2023-04-17T17:29:19.571Z,4.22
2023-04-17T17:31:53.444Z,5.53
2023-04-17T17:34:26.491Z,4.47
2023-04-17T17:37:00.486Z,4.22
2023-04-17T17:39:27.759Z,9.80
2023-04-17T17:41:55.897Z,5.28
2023-04-17T17:44:29.372Z,9.40
2023-04-17T17:46:56.592Z,8.65
2023-04-17T17:49:23.814Z,5.68
2023-04-17T17:51:57.330Z,3.28
2023-04-17T17:54:24.497Z,9.82
2023-04-17T17:56:58.379Z,6.22
2023-04-17T17:59:26.582Z,6.07
2023-04-17T18:02:08.469Z,5.07
2023-04-17T18:04:42.337Z,7.57
2023-04-17T18:07:09.724Z,5.97
2023-04-17T18:09:43.414Z,4.65
2023-04-17T18:12:10.613Z,4.22
2023-04-17T18:14:37.799Z,5.70
2023-04-17T18:17:11.410Z,3.70
2023-04-17T18:19:40.833Z,7.85
2023-04-17T18:22:08.384Z,5.03
2023-04-17T18:27:09.584Z,7.22
2023-04-17T18:29:43.474Z,4.38
2023-04-17T18:32:10.762Z,4.97
2023-04-17T18:34:37.902Z,5.55
2023-04-17T18:37:11.431Z,6.00
2023-04-17T18:39:38.687Z,9.63
2023-04-17T18:42:12.518Z,5.50
2023-04-17T18:44:39.733Z,4.22
2023-04-17T18:47:07.017Z,4.32
2023-04-17T18:49:40.368Z,6.57
2023-04-17T18:52:07.611Z,6.45
2023-04-17T18:54:42.378Z,7.53
2023-04-17T18:57:09.529Z,8.50
2023-04-17T18:59:36.713Z,9.23
2023-04-17T19:02:10.446Z,5.80
2023-04-17T19:04:38.168Z,5.50
2023-04-17T19:09:39.763Z,7.03
2023-04-17T19:12:07.086Z,5.03
2023-04-17T19:14:40.453Z,7.68
2023-04-17T19:17:07.735Z,4.68
2023-04-17T19:19:34.810Z,5.00
2023-04-17T19:22:08.410Z,13.07
2023-04-17T19:24:35.734Z,7.80
2023-04-17T19:27:02.860Z,6.35
2023-04-17T19:29:36.533Z,4.63
2023-04-17T19:32:04.200Z,6.28
2023-04-17T19:34:31.338Z,6.78
2023-04-17T19:37:05.538Z,7.15
2023-04-17T19:39:32.720Z,8.77
2023-04-17T19:41:59.850Z,7.25
2023-04-17T19:44:34.373Z,4.65
2023-04-17T19:47:01.599Z,5.88
2023-04-17T19:49:35.467Z,7.68
2023-04-17T19:52:02.943Z,5.20
2023-04-17T19:54:36.625Z,7.40
2023-04-17T19:57:03.880Z,4.57
2023-04-17T19:59:31.002Z,3.55
2023-04-17T20:02:04.891Z,6.35
2023-04-17T20:04:38.272Z,3.83
2023-04-17T20:07:12.485Z,7.07
2023-04-17T20:09:39.696Z,5.75
2023-04-17T20:12:07.016Z,9.10
2023-04-17T20:14:40.608Z,6.43
2023-04-17T20:17:08.087Z,4.82
2023-04-17T20:22:08.504Z,6.53
2023-04-17T20:24:35.768Z,8.18
2023-04-17T20:27:10.576Z,5.70
2023-04-17T20:29:38.382Z,7.45
2023-04-17T20:32:05.644Z,4.35
2023-04-17T20:34:41.522Z,6.57
2023-04-17T20:37:08.721Z,7.78
2023-04-17T20:39:35.808Z,5.88
2023-04-17T20:42:14.565Z,11.48
2023-04-17T20:44:41.780Z,4.95
2023-04-17T20:47:26.573Z,10.77
2023-04-17T20:49:53.948Z,5.93
2023-04-17T20:52:21.024Z,5.10
2023-04-17T20:54:54.489Z,9.30
2023-04-17T20:57:21.627Z,5.25
2023-04-17T20:59:55.606Z,5.55
2023-04-17T21:02:30.698Z,7.60
2023-04-17T21:05:06.468Z,6.72
2023-04-17T21:07:40.466Z,6.63
2023-04-17T21:10:08.012Z,9.20
2023-04-17T21:12:35.426Z,5.75
2023-04-17T21:15:09.434Z,13.80
2023-04-17T21:17:36.630Z,6.72
2023-04-17T21:20:11.700Z,6.35
2023-04-17T21:22:38.926Z,9.02
2023-04-17T21:25:06.272Z,8.38
2023-04-17T21:27:40.417Z,6.68
2023-04-17T21:30:08.653Z,6.05
2023-04-17T21:32:42.614Z,5.80
2023-04-17T21:35:10.426Z,8.82
2023-04-17T21:37:37.575Z,7.38
2023-04-17T21:40:11.471Z,5.28
2023-04-17T21:42:38.990Z,6.05
2023-04-17T21:45:13.437Z,7.47
2023-04-17T21:47:40.654Z,5.72
2023-04-17T21:50:08.153Z,12.10
2023-04-17T21:52:41.430Z,8.05
2023-04-17T21:55:08.787Z,8.02
2023-04-17T21:57:42.607Z,6.68
2023-04-17T22:00:12.933Z,7.20
2023-04-17T22:02:59.453Z,6.15
2023-04-17T22:05:33.484Z,5.32
2023-04-17T22:08:01.402Z,5.82
2023-04-17T22:10:29.759Z,9.13
2023-04-17T22:13:03.463Z,6.95
2023-04-17T22:15:30.872Z,10.23
2023-04-17T22:18:05.568Z,12.77
2023-04-17T22:21:10.728Z,7.15
2023-04-17T22:24:22.479Z,16.38
2023-04-17T22:27:27.427Z,10.10
2023-04-17T22:30:38.497Z,6.20
2023-04-17T22:33:43.020Z,7.40
2023-04-17T22:36:54.440Z,9.70
2023-04-17T22:39:59.210Z,6.65
2023-04-17T22:43:10.526Z,7.82
2023-04-17T22:45:37.941Z,6.97
2023-04-17T22:48:11.563Z,6.50
2023-04-17T22:50:39.357Z,7.75
2023-04-17T22:53:06.648Z,6.55
2023-04-17T22:55:40.467Z,8.52
2023-04-17T22:58:07.712Z,8.10
2023-04-17T23:00:34.936Z,11.23
2023-04-17T23:03:08.679Z,7.75
2023-04-17T23:05:35.961Z,7.75
2023-04-17T23:08:03.675Z,11.02
2023-04-17T23:10:37.432Z,9.57
2023-04-17T23:13:04.824Z,7.43
2023-04-17T23:15:40.462Z,9.57
2023-04-17T23:18:14.360Z,7.25
2023-04-17T23:20:48.490Z,8.55
2023-04-17T23:23:22.344Z,9.15
2023-04-17T23:25:56.620Z,6.28
2023-04-17T23:28:30.320Z,8.32
2023-04-17T23:31:04.738Z,8.00
2023-04-17T23:33:32.126Z,10.52
2023-04-17T23:35:59.459Z,7.30
2023-04-17T23:38:33.493Z,8.35
2023-04-17T23:41:00.694Z,12.35
2023-04-17T23:43:27.792Z,8.65
2023-04-17T23:46:01.489Z,9.70
2023-04-17T23:48:28.690Z,14.65
2023-04-17T23:51:02.611Z,28.27
2023-04-17T23:53:29.764Z,12.38
2023-04-17T23:55:56.872Z,6.95
2023-04-17T23:58:30.499Z,8.70
